Detall de PIREP

Printer-friendly versionPDF version

[2017/08/07 14:58:00]
Flight IATA:CT2104
Pilot Number:041
Company ICAO:CAT
Aircraft Type:B738/F
PAX:119
Departing Airport: LEVC
Destination Airport: LEBB
Alternate Airport:LEMD
Online: VATSIM
Route:CENTA/N0300F230 A33 PRADO/M078F350 CJN/M078F360 UL27 LARDA UN871 RONKO UM601 CEGAM
Flight Level:FL330
No Slew and time accel
No pause
Crash detect
Detect pilot in Cockpit between each 30 and 45 minutes
14:58 Zero fuel Weight: 135599 Lbs, Fuel Weight: 13650 Lbs
14:58 VATSIM:LEVC 071430Z 12010KT 080V160 9999 FEW030 31/22 Q1012 NOSIG
14:58 VATSIM:LEBB 071430Z 30009KT 280V350 9999 SCT018 BKN032 23/18 Q1014 NOSIG
14:58 VOICE CATALONIAN
14:58 Parking Brakes off
15:03 Take-off
15:03 Take off Weight: 148488 Lbs
15:03 Wind: 073º @ 009 Knots Heading: 112º
15:03 POS N39º 29´ 12´´ W000º 28´ 29´´
15:03 Gear Up: 165 Knots
15:03 Flaps:3 at 165 Knots
15:03 Flaps:2 at 171 Knots
15:04Flaps:1 at 189 Knots
15:04 Flaps:0 at 204 Knots
15:18 Wind:301º@028 Knots Heading: 299º Ground Speed: 437 Knots Altitude 31040 ft
15:19 TOC
15:19 Fuel Weight: 9381 Lb
15:33 Wind:270º@049 Knots Heading: 021º Ground Speed: 471 Knots Altitude 33900 ft
15:40 TOD
15:40 Fuel Weight: 7323 Lb
15:48 Wind:279º@042 Knots Heading: 294º Ground Speed: 340 Knots Altitude 20351 ft
15:54 Flaps:1 at 244 Knots
15:54 Flaps:2 at 249 Knots
15:55 Flaps:3 at 251 Knots
15:56 Flaps:4 at 243 Knots
15:57 Flaps:5 at 197 Knots
15:58 Flaps:6 at 182 Knots
15:58 Gear Down: 169 Knots
15:58 Flaps:7 at 167 Knots
15:59 Flaps:8 at 141 Knots
16:03 Wind:005º@005 Knots Heading: 298º Ground Speed: 139 Knots Altitude 1151 ft
16:04 TouchDown:Rate -166 ft/min Speed: 132 Knots
16:04 VATSIM:LEBB 071530Z 32012KT 9999 SCT018 BKN032 22/19 Q1014 NOSIG
16:04 Land
16:04 Wind:010º@005 Knots
16:04 Heading: 296º
16:04 Flight Duration: 01:01
16:04 Landing Weight: 141558 Lbs
16:04 POS N43º 18´ 16´´ W002º 55´ 13´´
16:08 Parking brakes on
16:08 Block to Block Duration: 01:10
16:08 Final Fuel: 5626 Lbls
16:08 Spent Fuel: 8024 Lbls
16:08 Flight Length: 369 NM
16:08 TOD Land Length: 112 NM

Exportar CSV

Powered by Drupal - Modified by Danger4k